Time;durP1;ratioP1;P1;durP2;ratioP2;P2;SDS_P1;SDS_P2;PMS_P1;PMS_P2;Temp;Humidity;BMP_temperature;BMP_pressure;BME280_temperature;BME280_humidity;BME280_pressure;Samples;Min_cycle;Max_cycle;Signal;HPM_P1;HPM_P2
2021/03/25 00:00:11;;;;;;;11.13;8.30;;;;;;;;;;5002021;28;20191;-77
2021/03/25 00:02:37;;;;;;;14.45;8.52;;;;;;;;;;5000109;28;20188;-77
2021/03/25 00:05:04;;;;;;;15.00;9.50;;;;;;;;;;5002028;28;20183;-77
2021/03/25 00:07:30;;;;;;;10.50;8.07;;;;;;;;;;5005284;28;20190;-77
2021/03/25 00:09:56;;;;;;;11.63;8.03;;;;;;;;;;5004307;28;20191;-77
2021/03/25 00:12:22;;;;;;;10.45;7.70;;;;;;;;;;5001767;28;20501;-77
2021/03/25 00:14:48;;;;;;;10.68;9.02;;;;;;;;;;5001188;28;20191;-77
2021/03/25 00:17:14;;;;;;;15.02;9.07;;;;;;;;;;5003145;28;20250;-77
2021/03/25 00:19:40;;;;;;;13.95;9.93;;;;;;;;;;5004900;28;20191;-77
2021/03/25 00:22:06;;;;;;;13.57;9.27;;;;;;;;;;5002318;28;20214;-77
2021/03/25 00:24:32;;;;;;;12.70;8.90;;;;;;;;;;5000123;28;20488;-77
2021/03/25 00:26:58;;;;;;;10.13;8.10;;;;;;;;;;5002893;28;20464;-77
2021/03/25 00:29:24;;;;;;;10.95;9.07;;;;;;;;;;4998677;28;20448;-77
2021/03/25 00:31:50;;;;;;;15.10;8.50;;;;;;;;;;5003735;28;20448;-77
2021/03/25 00:34:17;;;;;;;15.55;9.02;;;;;;;;;;5013250;28;20465;-77
2021/03/25 00:36:43;;;;;;;14.68;9.07;;;;;;;;;;4999350;28;20195;-77
2021/03/25 00:39:10;;;;;;;13.48;7.90;;;;;;;;;;5002864;28;20908;-77
2021/03/25 00:41:36;;;;;;;13.00;8.68;;;;;;;;;;5001730;28;20191;-77
2021/03/25 00:44:04;;;;;;;13.00;8.40;;;;;;;;;;5002306;28;20187;-77
2021/03/25 00:46:30;;;;;;;13.57;9.18;;;;;;;;;;5002816;28;20492;-77
2021/03/25 00:48:57;;;;;;;14.80;8.90;;;;;;;;;;5001794;28;20191;-77
2021/03/25 00:51:23;;;;;;;11.98;8.15;;;;;;;;;;5000737;28;20449;-77
2021/03/25 00:53:49;;;;;;;14.20;9.60;;;;;;;;;;5001651;28;20218;-77
2021/03/25 00:56:15;;;;;;;14.20;10.30;;;;;;;;;;5002123;28;20199;-77
2021/03/25 00:58:41;;;;;;;13.38;8.93;;;;;;;;;;5002460;28;20206;-77
2021/03/25 01:01:08;;;;;;;11.90;8.45;;;;;;;;;;4999905;28;20183;-77
2021/03/25 01:03:34;;;;;;;14.25;10.10;;;;;;;;;;5001649;28;20183;-77
2021/03/25 01:06:00;;;;;;;13.70;9.82;;;;;;;;;;5002081;28;20256;-77
2021/03/25 01:08:26;;;;;;;14.93;10.13;;;;;;;;;;5005361;28;20194;-77
2021/03/25 01:10:59;;;;;;;15.43;11.20;;;;;;;;;;5002615;28;20226;-77
2021/03/25 01:13:36;;;;;;;15.68;11.95;;;;;;;;;;5007899;28;20887;-77
2021/03/25 01:16:03;;;;;;;14.90;10.15;;;;;;;;;;4998823;28;20194;-77
2021/03/25 01:18:29;;;;;;;14.73;10.25;;;;;;;;;;5001132;28;20199;-77
2021/03/25 01:20:56;;;;;;;15.73;10.57;;;;;;;;;;5003922;28;20179;-77
2021/03/25 01:23:22;;;;;;;15.02;10.73;;;;;;;;;;5009518;28;20637;-77
2021/03/25 01:25:48;;;;;;;12.27;10.27;;;;;;;;;;5012581;28;20242;-77
2021/03/25 01:28:15;;;;;;;15.32;10.50;;;;;;;;;;4998408;28;20277;-77
2021/03/25 01:30:42;;;;;;;14.43;10.95;;;;;;;;;;5001770;28;20556;-77
2021/03/25 01:33:09;;;;;;;17.30;9.82;;;;;;;;;;5002326;28;20210;-77
2021/03/25 01:35:36;;;;;;;18.35;10.88;;;;;;;;;;5001627;28;20195;-77
2021/03/25 01:38:03;;;;;;;12.93;10.18;;;;;;;;;;5001780;28;20209;-77
2021/03/25 01:40:34;;;;;;;17.45;10.23;;;;;;;;;;5017565;28;20190;-77
2021/03/25 01:43:16;;;;;;;17.95;10.70;;;;;;;;;;5000857;28;20240;-77
2021/03/25 01:46:05;;;;;;;16.40;9.50;;;;;;;;;;4999223;28;20202;-77
2021/03/25 01:48:33;;;;;;;11.13;9.10;;;;;;;;;;4998206;28;20206;-78
2021/03/25 01:51:18;;;;;;;10.93;9.23;;;;;;;;;;4999502;28;20187;-77
2021/03/25 01:53:48;;;;;;;12.45;9.30;;;;;;;;;;5003608;28;20194;-77
2021/03/25 01:56:33;;;;;;;13.75;10.38;;;;;;;;;;5005286;28;20192;-77
2021/03/25 01:59:25;;;;;;;16.80;10.00;;;;;;;;;;4996138;28;20203;-77
2021/03/25 02:01:50;;;;;;;12.23;9.18;;;;;;;;;;5008177;28;20227;-77
2021/03/25 02:04:35;;;;;;;14.40;9.77;;;;;;;;;;4994075;28;20191;-77
2021/03/25 02:07:20;;;;;;;12.50;10.23;;;;;;;;;;4996574;28;20442;-77
2021/03/25 02:10:04;;;;;;;15.60;9.23;;;;;;;;;;4997981;28;20260;-77
2021/03/25 02:12:49;;;;;;;15.07;9.93;;;;;;;;;;4996840;28;20383;-77
2021/03/25 02:15:27;;;;;;;14.32;10.00;;;;;;;;;;4998162;28;20284;-77
2021/03/25 02:18:01;;;;;;;10.00;8.38;;;;;;;;;;5007832;28;20329;-77
2021/03/25 02:20:27;;;;;;;15.40;10.15;;;;;;;;;;4999363;28;20195;-77
2021/03/25 02:23:25;;;;;;;14.38;9.00;;;;;;;;;;5002731;28;20250;-77
2021/03/25 02:25:58;;;;;;;17.88;9.63;;;;;;;;;;4975674;28;20191;-77
2021/03/25 02:28:42;;;;;;;13.45;9.40;;;;;;;;;;4988403;28;20195;-77
2021/03/25 02:31:19;;;;;;;11.05;8.88;;;;;;;;;;4990134;28;20284;-77
2021/03/25 02:33:46;;;;;;;10.23;8.73;;;;;;;;;;4987713;28;20286;-77
2021/03/25 02:36:13;;;;;;;15.23;9.55;;;;;;;;;;4994194;28;20218;-77
2021/03/25 02:38:44;;;;;;;11.82;7.82;;;;;;;;;;4993483;28;20207;-78
2021/03/25 02:41:16;;;;;;;14.40;9.00;;;;;;;;;;4997559;28;20213;-78
2021/03/25 02:43:54;;;;;;;10.77;8.68;;;;;;;;;;4998462;28;20181;-77
2021/03/25 02:46:23;;;;;;;11.85;8.45;;;;;;;;;;4987220;28;20174;-78
2021/03/25 02:48:49;;;;;;;10.35;7.97;;;;;;;;;;4985873;28;20199;-77
2021/03/25 02:51:24;;;;;;;14.10;8.80;;;;;;;;;;4993876;28;20195;-77
2021/03/25 02:53:50;;;;;;;13.57;8.18;;;;;;;;;;4986639;28;20208;-78
2021/03/25 02:56:19;;;;;;;12.68;8.07;;;;;;;;;;4996325;28;20187;-78
2021/03/25 02:58:48;;;;;;;12.70;8.27;;;;;;;;;;4970750;28;20635;-78
2021/03/25 03:01:15;;;;;;;12.80;8.57;;;;;;;;;;4994091;28;20199;-78
2021/03/25 03:03:43;;;;;;;17.60;8.85;;;;;;;;;;5000037;28;20187;-78
2021/03/25 03:06:13;;;;;;;11.40;9.18;;;;;;;;;;5000855;28;20254;-77
2021/03/25 03:08:42;;;;;;;11.63;9.75;;;;;;;;;;5002372;28;20194;-77
2021/03/25 03:11:11;;;;;;;12.05;9.18;;;;;;;;;;5005005;28;20215;-77
2021/03/25 03:13:39;;;;;;;17.75;10.05;;;;;;;;;;5004216;28;20197;-77
2021/03/25 03:16:17;;;;;;;16.20;9.93;;;;;;;;;;5004632;28;20618;-77
2021/03/25 03:18:45;;;;;;;17.15;10.55;;;;;;;;;;5004481;28;20210;-77
2021/03/25 03:21:17;;;;;;;16.63;11.82;;;;;;;;;;5004001;28;20187;-75
2021/03/25 03:23:43;;;;;;;16.45;12.32;;;;;;;;;;5005430;28;20195;-77
2021/03/25 03:26:13;;;;;;;17.05;11.23;;;;;;;;;;5003800;28;20175;-77
2021/03/25 03:28:47;;;;;;;19.08;11.65;;;;;;;;;;5006119;28;20187;-77
2021/03/25 03:31:18;;;;;;;16.10;12.40;;;;;;;;;;5004074;28;20191;-77
2021/03/25 03:33:49;;;;;;;15.20;12.77;;;;;;;;;;5003586;28;20202;-77
2021/03/25 03:36:33;;;;;;;17.23;12.32;;;;;;;;;;5002736;28;20184;-76
2021/03/25 03:39:16;;;;;;;17.63;13.07;;;;;;;;;;5000715;28;20218;-77
2021/03/25 03:41:46;;;;;;;16.27;12.80;;;;;;;;;;5003430;28;20912;-77
2021/03/25 03:44:14;;;;;;;17.13;12.43;;;;;;;;;;5002990;28;20206;-77
2021/03/25 03:46:42;;;;;;;14.52;12.25;;;;;;;;;;4999981;28;20179;-77
2021/03/25 03:49:11;;;;;;;16.55;12.70;;;;;;;;;;5000739;28;20194;-77
2021/03/25 03:51:45;;;;;;;16.38;13.00;;;;;;;;;;5002639;28;20195;-78
2021/03/25 03:54:11;;;;;;;16.05;12.05;;;;;;;;;;4999586;28;20179;-77
2021/03/25 03:56:46;;;;;;;15.73;12.35;;;;;;;;;;5002964;28;20266;-77
2021/03/25 03:59:17;;;;;;;20.42;12.10;;;;;;;;;;5002934;28;20203;-77
2021/03/25 04:01:51;;;;;;;17.00;12.18;;;;;;;;;;5002984;28;20179;-77
2021/03/25 04:04:22;;;;;;;21.25;13.35;;;;;;;;;;5001158;28;20235;-77
2021/03/25 04:06:54;;;;;;;22.98;13.52;;;;;;;;;;5002631;28;20196;-77
2021/03/25 04:09:24;;;;;;;22.85;13.15;;;;;;;;;;5003335;28;20191;-78
2021/03/25 04:11:52;;;;;;;20.95;13.45;;;;;;;;;;5003646;28;20230;-76
2021/03/25 04:14:26;;;;;;;17.63;12.05;;;;;;;;;;5003033;28;20199;-77
2021/03/25 04:16:55;;;;;;;16.48;13.18;;;;;;;;;;5001834;28;20183;-80
2021/03/25 04:19:23;;;;;;;14.88;12.32;;;;;;;;;;4998471;28;20302;-77
2021/03/25 04:21:55;;;;;;;18.55;13.15;;;;;;;;;;4998478;28;20186;-77
2021/03/25 04:24:23;;;;;;;15.00;11.52;;;;;;;;;;4998215;28;20203;-77
2021/03/25 04:27:12;;;;;;;19.65;13.27;;;;;;;;;;5003691;28;20191;-77
2021/03/25 04:29:44;;;;;;;18.85;12.50;;;;;;;;;;5001557;28;20191;-77
2021/03/25 04:32:10;;;;;;;19.52;12.90;;;;;;;;;;5002040;28;20171;-76
2021/03/25 04:34:36;;;;;;;21.35;13.60;;;;;;;;;;5002852;28;20425;-77
2021/03/25 04:37:04;;;;;;;22.08;13.85;;;;;;;;;;5003542;28;20444;-77
2021/03/25 04:39:30;;;;;;;21.23;13.60;;;;;;;;;;4998362;28;20195;-77
2021/03/25 04:41:56;;;;;;;20.08;12.82;;;;;;;;;;5002533;28;20199;-78
2021/03/25 04:44:22;;;;;;;20.85;13.35;;;;;;;;;;5003736;28;20331;-79
2021/03/25 04:46:59;;;;;;;21.57;12.83;;;;;;;;;;4999041;28;20187;-80
2021/03/25 04:49:31;;;;;;;21.27;13.18;;;;;;;;;;5016390;28;20430;-79
2021/03/25 04:51:58;;;;;;;20.15;13.68;;;;;;;;;;5004906;28;20193;-80
2021/03/25 04:54:32;;;;;;;19.90;13.07;;;;;;;;;;5008310;28;20184;-81
2021/03/25 04:57:18;;;;;;;25.83;12.70;;;;;;;;;;5012685;28;20258;-80
2021/03/25 04:59:44;;;;;;;31.40;14.85;;;;;;;;;;5013522;28;20190;-82
2021/03/25 05:02:11;;;;;;;20.92;13.57;;;;;;;;;;5009870;28;20182;-81
2021/03/25 05:04:40;;;;;;;27.95;15.30;;;;;;;;;;5009174;28;20259;-82
2021/03/25 05:07:07;;;;;;;20.08;13.48;;;;;;;;;;5001443;28;20193;-82
2021/03/25 05:09:34;;;;;;;20.05;13.38;;;;;;;;;;5000632;28;20191;-83
2021/03/25 05:12:01;;;;;;;20.77;13.70;;;;;;;;;;4992778;28;20270;-83
2021/03/25 05:14:28;;;;;;;28.17;14.50;;;;;;;;;;5000400;28;20213;-83
2021/03/25 05:16:54;;;;;;;19.70;14.32;;;;;;;;;;4998338;28;20194;-82
2021/03/25 05:19:23;;;;;;;23.15;14.30;;;;;;;;;;5006359;28;20244;-83
2021/03/25 05:22:06;;;;;;;21.52;14.13;;;;;;;;;;5000053;28;20233;-83
2021/03/25 05:24:44;;;;;;;21.45;13.93;;;;;;;;;;4997711;28;20183;-83
2021/03/25 05:27:17;;;;;;;20.40;13.85;;;;;;;;;;4992630;28;20649;-82
2021/03/25 05:29:44;;;;;;;20.60;13.13;;;;;;;;;;5001981;28;20574;-82
2021/03/25 05:32:12;;;;;;;28.90;15.18;;;;;;;;;;5007681;28;20188;-82
2021/03/25 05:34:39;;;;;;;20.00;14.25;;;;;;;;;;5012471;28;20178;-82
2021/03/25 05:37:06;;;;;;;20.42;14.07;;;;;;;;;;4997711;28;20192;-82
2021/03/25 05:39:32;;;;;;;19.80;14.77;;;;;;;;;;4993013;28;20195;-82
2021/03/25 05:42:10;;;;;;;23.48;13.70;;;;;;;;;;5014107;28;20715;-81
2021/03/25 05:44:54;;;;;;;22.45;14.70;;;;;;;;;;5011828;28;20183;-81
2021/03/25 05:47:30;;;;;;;21.63;12.45;;;;;;;;;;5012950;28;20720;-81
2021/03/25 05:49:58;;;;;;;26.85;13.77;;;;;;;;;;5002688;28;20183;-81
2021/03/25 05:52:27;;;;;;;17.65;13.40;;;;;;;;;;5002770;28;20194;-82
2021/03/25 05:54:59;;;;;;;21.92;13.85;;;;;;;;;;5002451;28;20182;-81
2021/03/25 05:57:38;;;;;;;22.20;14.95;;;;;;;;;;5006505;28;20198;-82
2021/03/25 06:00:10;;;;;;;25.45;14.80;;;;;;;;;;5001984;28;20186;-81
2021/03/25 06:02:45;;;;;;;19.48;13.25;;;;;;;;;;5000779;28;20191;-82
2021/03/25 06:05:12;;;;;;;31.48;14.98;;;;;;;;;;5007642;28;20282;-82
2021/03/25 06:07:44;;;;;;;28.58;15.20;;;;;;;;;;5007567;28;20206;-82
2021/03/25 06:10:16;;;;;;;26.98;15.65;;;;;;;;;;5005384;28;20179;-82
2021/03/25 06:13:05;;;;;;;21.83;15.85;;;;;;;;;;5005445;28;20238;-82
2021/03/25 06:15:40;;;;;;;31.40;15.50;;;;;;;;;;4967499;28;20212;-82
2021/03/25 06:18:29;;;;;;;31.65;15.50;;;;;;;;;;4953625;28;20216;-81
2021/03/25 06:21:02;;;;;;;22.38;15.85;;;;;;;;;;4946741;28;20203;-82
2021/03/25 06:23:31;;;;;;;21.42;14.00;;;;;;;;;;4956436;28;20185;-83
2021/03/25 06:25:57;;;;;;;34.10;14.73;;;;;;;;;;4973017;28;20188;-82
2021/03/25 06:28:41;;;;;;;22.90;15.00;;;;;;;;;;4941716;29;20177;-81
2021/03/25 06:31:19;;;;;;;22.13;13.93;;;;;;;;;;4961547;28;20459;-82
2021/03/25 06:33:51;;;;;;;19.63;14.70;;;;;;;;;;4945411;28;20207;-82
2021/03/25 06:36:19;;;;;;;33.42;15.35;;;;;;;;;;4962021;28;20725;-81
2021/03/25 06:38:53;;;;;;;21.77;15.50;;;;;;;;;;4968590;28;20229;-82
2021/03/25 06:41:25;;;;;;;23.73;15.05;;;;;;;;;;4962408;28;20256;-82
2021/03/25 06:43:51;;;;;;;26.95;15.20;;;;;;;;;;4959423;28;20172;-83
2021/03/25 06:46:35;;;;;;;27.07;15.10;;;;;;;;;;4949302;28;20592;-83
2021/03/25 06:49:21;;;;;;;20.02;14.82;;;;;;;;;;4967672;28;20871;-82
2021/03/25 06:51:47;;;;;;;20.60;14.95;;;;;;;;;;4958827;28;20258;-81
2021/03/25 06:54:15;;;;;;;23.33;14.87;;;;;;;;;;5009274;28;20210;-82
2021/03/25 06:56:43;;;;;;;20.48;15.73;;;;;;;;;;5000470;28;20480;-82
2021/03/25 06:59:15;;;;;;;21.30;15.85;;;;;;;;;;5006314;28;20198;-82
2021/03/25 07:01:45;;;;;;;21.00;16.13;;;;;;;;;;5002139;28;20644;-82
2021/03/25 07:04:15;;;;;;;23.20;15.10;;;;;;;;;;5008405;28;20186;-82
2021/03/25 07:06:41;;;;;;;25.80;16.33;;;;;;;;;;4997626;28;20179;-81
2021/03/25 07:09:08;;;;;;;26.33;15.98;;;;;;;;;;5006297;28;20274;-82
2021/03/25 07:11:36;;;;;;;30.90;17.05;;;;;;;;;;5003551;28;20424;-82
2021/03/25 07:14:06;;;;;;;24.00;15.35;;;;;;;;;;4997984;28;20191;-81
2021/03/25 07:16:36;;;;;;;23.05;16.00;;;;;;;;;;4991789;28;20544;-80
2021/03/25 07:19:07;;;;;;;25.80;15.90;;;;;;;;;;4995141;28;20207;-81
2021/03/25 07:21:38;;;;;;;25.48;15.77;;;;;;;;;;4999764;28;20184;-80
2021/03/25 07:24:06;;;;;;;28.88;15.68;;;;;;;;;;5010688;28;20175;-80
2021/03/25 07:26:34;;;;;;;33.00;17.45;;;;;;;;;;5006343;28;20189;-80
2021/03/25 07:29:03;;;;;;;21.08;14.80;;;;;;;;;;5009234;28;20203;-80
2021/03/25 07:31:40;;;;;;;24.48;16.88;;;;;;;;;;4992068;28;20191;-81
2021/03/25 07:34:06;;;;;;;22.65;15.55;;;;;;;;;;4997302;28;20182;-81
2021/03/25 07:36:35;;;;;;;26.98;16.02;;;;;;;;;;5000292;28;20192;-80
2021/03/25 07:39:04;;;;;;;25.35;17.75;;;;;;;;;;4994953;28;20259;-81
2021/03/25 07:41:32;;;;;;;19.80;16.75;;;;;;;;;;5025181;28;20180;-80
2021/03/25 07:44:06;;;;;;;24.85;15.82;;;;;;;;;;5011046;28;20185;-81
2021/03/25 07:46:38;;;;;;;30.02;17.23;;;;;;;;;;5011119;28;20178;-82
2021/03/25 07:49:05;;;;;;;25.55;16.73;;;;;;;;;;4997105;28;20960;-81
2021/03/25 07:52:02;;;;;;;21.50;16.05;;;;;;;;;;5000880;28;20581;-81
2021/03/25 07:54:31;;;;;;;20.90;14.73;;;;;;;;;;4990729;28;20210;-81
2021/03/25 07:57:00;;;;;;;25.67;14.60;;;;;;;;;;5004577;28;20190;-81
2021/03/25 07:59:28;;;;;;;21.52;15.02;;;;;;;;;;5011519;28;20214;-82
2021/03/25 08:01:54;;;;;;;24.48;15.65;;;;;;;;;;5011862;28;20261;-81
2021/03/25 08:04:24;;;;;;;22.02;14.25;;;;;;;;;;5010497;28;20172;-80
2021/03/25 08:06:57;;;;;;;24.90;14.63;;;;;;;;;;5008697;28;20198;-81
2021/03/25 08:09:23;;;;;;;22.60;15.65;;;;;;;;;;5001280;28;20267;-82
2021/03/25 08:11:58;;;;;;;25.85;15.93;;;;;;;;;;5014320;28;20298;-82
2021/03/25 08:14:26;;;;;;;18.35;14.57;;;;;;;;;;5010476;28;20258;-80
2021/03/25 08:16:56;;;;;;;22.13;15.00;;;;;;;;;;5011193;28;20186;-78
2021/03/25 08:19:25;;;;;;;23.42;15.30;;;;;;;;;;4999864;28;20207;-79
2021/03/25 08:21:59;;;;;;;19.88;15.00;;;;;;;;;;5005936;28;20179;-79
2021/03/25 08:24:44;;;;;;;24.17;16.15;;;;;;;;;;4987905;28;20218;-79
2021/03/25 08:27:45;;;;;;;28.10;15.90;;;;;;;;;;5000356;28;20211;-79
2021/03/25 08:30:30;;;;;;;21.52;15.48;;;;;;;;;;4962043;28;20212;-78
2021/03/25 08:32:58;;;;;;;24.25;16.35;;;;;;;;;;4940604;29;20359;-79
2021/03/25 08:35:31;;;;;;;21.58;14.70;;;;;;;;;;4945168;28;20227;-79
2021/03/25 08:38:15;;;;;;;23.80;17.08;;;;;;;;;;4962713;28;20220;-79
2021/03/25 08:40:44;;;;;;;22.95;17.52;;;;;;;;;;4952416;28;20687;-79
2021/03/25 08:43:17;;;;;;;24.33;14.82;;;;;;;;;;4943312;28;20220;-79
2021/03/25 08:45:43;;;;;;;20.67;15.38;;;;;;;;;;4944212;28;20207;-79
2021/03/25 08:48:15;;;;;;;27.10;15.00;;;;;;;;;;4951013;28;20188;-79
2021/03/25 08:50:49;;;;;;;26.33;15.70;;;;;;;;;;4945394;29;20453;-79
2021/03/25 08:53:21;;;;;;;23.15;16.23;;;;;;;;;;4948419;28;20185;-79
2021/03/25 08:55:48;;;;;;;17.05;14.63;;;;;;;;;;4966039;28;20266;-79
2021/03/25 08:58:14;;;;;;;20.30;16.00;;;;;;;;;;4944929;29;20244;-76
2021/03/25 09:00:41;;;;;;;25.70;16.40;;;;;;;;;;4963756;28;20196;-77
2021/03/25 09:03:07;;;;;;;22.00;14.90;;;;;;;;;;4974657;28;20447;-79
2021/03/25 09:05:36;;;;;;;30.73;16.00;;;;;;;;;;5014771;28;20190;-79
2021/03/25 09:08:04;;;;;;;21.35;17.30;;;;;;;;;;4997934;28;20435;-78
2021/03/25 09:10:37;;;;;;;22.90;16.10;;;;;;;;;;5001973;28;20186;-79
2021/03/25 09:13:03;;;;;;;25.33;17.02;;;;;;;;;;4999866;28;20179;-78
2021/03/25 09:15:29;;;;;;;23.40;16.77;;;;;;;;;;4998736;28;20187;-78
2021/03/25 09:18:00;;;;;;;19.23;14.95;;;;;;;;;;5016740;28;20261;-79
2021/03/25 09:20:30;;;;;;;20.70;15.52;;;;;;;;;;4999324;28;20187;-78
2021/03/25 09:22:58;;;;;;;18.55;14.00;;;;;;;;;;5016117;28;20202;-78
2021/03/25 09:25:27;;;;;;;18.67;14.20;;;;;;;;;;5006080;28;20171;-77
2021/03/25 09:28:02;;;;;;;19.48;15.40;;;;;;;;;;5003658;28;20184;-78
2021/03/25 09:30:43;;;;;;;17.48;13.77;;;;;;;;;;5006120;28;20182;-78
2021/03/25 09:33:28;;;;;;;18.73;12.95;;;;;;;;;;4992890;28;20198;-78
2021/03/25 09:35:54;;;;;;;16.52;13.60;;;;;;;;;;5012807;28;20191;-78
2021/03/25 09:38:29;;;;;;;17.95;14.05;;;;;;;;;;4996880;28;20629;-77
2021/03/25 09:40:55;;;;;;;15.27;12.48;;;;;;;;;;5021382;28;20178;-79
2021/03/25 09:43:31;;;;;;;16.38;14.00;;;;;;;;;;4999289;28;20258;-79
2021/03/25 09:45:58;;;;;;;16.75;13.05;;;;;;;;;;4996167;28;20634;-77
2021/03/25 09:48:28;;;;;;;17.30;13.25;;;;;;;;;;4999396;28;20191;-80
2021/03/25 09:51:03;;;;;;;15.38;13.52;;;;;;;;;;4998445;28;20247;-78
2021/03/25 09:53:29;;;;;;;15.52;12.70;;;;;;;;;;5009022;28;20295;-78
2021/03/25 09:56:00;;;;;;;15.20;11.90;;;;;;;;;;5000530;28;20194;-77
2021/03/25 09:58:43;;;;;;;18.60;13.68;;;;;;;;;;4997093;28;20211;-78
2021/03/25 10:01:09;;;;;;;16.33;13.30;;;;;;;;;;4998611;28;20184;-79
2021/03/25 10:03:54;;;;;;;17.33;14.02;;;;;;;;;;4998630;28;20187;-78
2021/03/25 10:06:39;;;;;;;17.27;12.63;;;;;;;;;;5006956;28;20198;-78
2021/03/25 10:09:05;;;;;;;13.73;11.77;;;;;;;;;;4989345;28;20305;-77
2021/03/25 10:11:38;;;;;;;16.00;12.90;;;;;;;;;;5000085;28;20215;-78
2021/03/25 10:14:24;;;;;;;16.42;12.90;;;;;;;;;;5008060;28;20233;-77
2021/03/25 10:16:50;;;;;;;20.02;14.18;;;;;;;;;;4994324;28;20258;-78
2021/03/25 10:19:36;;;;;;;19.67;13.87;;;;;;;;;;4997643;28;20234;-78
2021/03/25 10:22:03;;;;;;;19.60;14.25;;;;;;;;;;5004255;28;20436;-78
2021/03/25 10:24:32;;;;;;;16.85;12.20;;;;;;;;;;5004758;28;20179;-78
2021/03/25 10:27:00;;;;;;;15.25;12.15;;;;;;;;;;5016942;28;20187;-78
2021/03/25 10:29:35;;;;;;;17.40;12.65;;;;;;;;;;5023281;28;20219;-78
2021/03/25 10:32:02;;;;;;;19.15;12.50;;;;;;;;;;5007907;28;20228;-78
2021/03/25 10:34:33;;;;;;;18.30;12.68;;;;;;;;;;4996934;28;20229;-79
2021/03/25 10:37:02;;;;;;;14.73;12.27;;;;;;;;;;5001268;28;20186;-79
2021/03/25 10:39:37;;;;;;;15.30;12.55;;;;;;;;;;5004719;28;20211;-78
2021/03/25 10:42:24;;;;;;;12.68;11.13;;;;;;;;;;4991542;28;20187;-78
2021/03/25 10:44:50;;;;;;;13.23;10.45;;;;;;;;;;5026402;28;20178;-78
2021/03/25 10:47:19;;;;;;;14.68;10.90;;;;;;;;;;5006052;28;20190;-79
2021/03/25 10:49:56;;;;;;;15.05;10.70;;;;;;;;;;5001190;28;20672;-78
2021/03/25 10:52:27;;;;;;;15.18;11.27;;;;;;;;;;5013050;28;20187;-79
2021/03/25 10:54:56;;;;;;;16.75;11.10;;;;;;;;;;5001056;28;20205;-78
2021/03/25 10:57:27;;;;;;;13.50;10.70;;;;;;;;;;4992237;28;20205;-79
2021/03/25 11:00:01;;;;;;;12.32;9.90;;;;;;;;;;5011613;28;20187;-79
2021/03/25 11:02:28;;;;;;;13.32;10.23;;;;;;;;;;5009990;28;20269;-79
2021/03/25 11:05:06;;;;;;;12.52;10.30;;;;;;;;;;4996380;28;20202;-78
2021/03/25 11:07:39;;;;;;;15.20;9.60;;;;;;;;;;4998105;28;20175;-79
2021/03/25 11:10:06;;;;;;;17.25;11.45;;;;;;;;;;5000103;28;20187;-79
2021/03/25 11:12:33;;;;;;;16.35;9.85;;;;;;;;;;4994233;28;20210;-79
2021/03/25 11:15:00;;;;;;;17.42;11.00;;;;;;;;;;5007493;28;20183;-79
2021/03/25 11:17:28;;;;;;;15.95;10.80;;;;;;;;;;5003086;28;20213;-79
2021/03/25 11:19:56;;;;;;;15.65;10.63;;;;;;;;;;5008395;28;20191;-79
2021/03/25 11:22:22;;;;;;;15.85;11.20;;;;;;;;;;4998599;28;20186;-79
2021/03/25 11:24:49;;;;;;;17.48;10.60;;;;;;;;;;5004670;28;20240;-79
2021/03/25 11:27:17;;;;;;;14.73;10.40;;;;;;;;;;5001535;28;20202;-79
2021/03/25 11:29:47;;;;;;;16.58;12.82;;;;;;;;;;4998243;28;20467;-80
2021/03/25 11:32:21;;;;;;;16.13;12.63;;;;;;;;;;5009680;28;20200;-78
2021/03/25 11:34:48;;;;;;;19.13;12.60;;;;;;;;;;5012115;28;20646;-80
2021/03/25 11:37:26;;;;;;;16.75;12.52;;;;;;;;;;5006661;28;20183;-79
2021/03/25 11:39:59;;;;;;;19.90;13.57;;;;;;;;;;5006483;28;20222;-79
2021/03/25 11:42:28;;;;;;;18.38;12.65;;;;;;;;;;5008805;28;20191;-79
2021/03/25 11:44:55;;;;;;;15.43;11.27;;;;;;;;;;5015552;28;20306;-79
2021/03/25 11:47:21;;;;;;;18.17;13.15;;;;;;;;;;5005941;28;20184;-79
2021/03/25 11:49:47;;;;;;;19.13;11.40;;;;;;;;;;4994132;28;20202;-79
2021/03/25 11:52:13;;;;;;;16.67;10.10;;;;;;;;;;4999518;28;20199;-79
2021/03/25 11:54:42;;;;;;;16.63;10.30;;;;;;;;;;5001047;28;20188;-79
2021/03/25 11:57:09;;;;;;;14.48;11.05;;;;;;;;;;5012308;28;20175;-78
2021/03/25 11:59:39;;;;;;;19.05;10.82;;;;;;;;;;5001854;28;20199;-79
2021/03/25 12:02:26;;;;;;;14.23;10.65;;;;;;;;;;5013619;28;20180;-79
2021/03/25 12:04:52;;;;;;;16.98;11.50;;;;;;;;;;5004786;28;20215;-81
2021/03/25 12:07:20;;;;;;;19.02;11.32;;;;;;;;;;5004639;28;20242;-80
2021/03/25 12:10:05;;;;;;;13.45;11.15;;;;;;;;;;5008926;28;20198;-80
2021/03/25 12:12:31;;;;;;;13.40;10.43;;;;;;;;;;4993697;28;20234;-80
2021/03/25 12:14:57;;;;;;;16.00;12.02;;;;;;;;;;4999392;28;20188;-80
2021/03/25 12:17:24;;;;;;;13.27;10.50;;;;;;;;;;5005358;28;20206;-79
2021/03/25 12:19:50;;;;;;;15.40;11.52;;;;;;;;;;5001779;28;20190;-79
2021/03/25 12:22:22;;;;;;;15.48;10.35;;;;;;;;;;5016257;28;20180;-80
2021/03/25 12:24:48;;;;;;;15.23;11.07;;;;;;;;;;4996664;28;20242;-80
2021/03/25 12:27:20;;;;;;;18.02;12.77;;;;;;;;;;4995556;28;20241;-81
2021/03/25 12:29:46;;;;;;;16.38;11.75;;;;;;;;;;5000152;28;20215;-81
2021/03/25 12:32:13;;;;;;;17.42;10.80;;;;;;;;;;5000458;28;20183;-80
2021/03/25 12:34:39;;;;;;;16.02;10.23;;;;;;;;;;5003314;28;20653;-81
2021/03/25 12:37:05;;;;;;;12.87;10.20;;;;;;;;;;5000887;28;20271;-80
2021/03/25 12:39:31;;;;;;;14.00;11.02;;;;;;;;;;4998787;28;20465;-81
2021/03/25 12:41:58;;;;;;;12.98;10.18;;;;;;;;;;5002925;28;20180;-81
2021/03/25 12:44:24;;;;;;;10.55;8.02;;;;;;;;;;5001523;28;20542;-80
2021/03/25 12:46:50;;;;;;;9.07;8.13;;;;;;;;;;5005922;28;20189;-80
2021/03/25 12:49:16;;;;;;;9.70;8.00;;;;;;;;;;4999493;28;20438;-79
2021/03/25 12:51:42;;;;;;;14.13;7.57;;;;;;;;;;5004289;28;20199;-79
2021/03/25 12:54:08;;;;;;;13.00;8.80;;;;;;;;;;4998654;28;20456;-80
2021/03/25 12:56:35;;;;;;;10.15;8.20;;;;;;;;;;4989675;28;20441;-80
2021/03/25 12:59:03;;;;;;;8.30;6.65;;;;;;;;;;5001910;28;20254;-81
2021/03/25 13:01:32;;;;;;;8.00;7.20;;;;;;;;;;5003230;28;20295;-81
2021/03/25 13:03:58;;;;;;;9.20;7.78;;;;;;;;;;5014399;28;20258;-80
2021/03/25 13:06:24;;;;;;;12.00;8.23;;;;;;;;;;5004721;28;20183;-80
2021/03/25 13:08:50;;;;;;;13.55;10.02;;;;;;;;;;5003995;28;20448;-81
2021/03/25 13:11:25;;;;;;;10.88;6.60;;;;;;;;;;5006038;28;20241;-81
2021/03/25 13:13:51;;;;;;;10.07;7.32;;;;;;;;;;5006596;28;20190;-81
2021/03/25 13:16:17;;;;;;;9.17;6.60;;;;;;;;;;5004164;28;20185;-81
2021/03/25 13:18:43;;;;;;;6.03;4.63;;;;;;;;;;5005942;28;20878;-80
2021/03/25 13:21:10;;;;;;;9.00;4.47;;;;;;;;;;5009695;28;20443;-78
2021/03/25 13:23:36;;;;;;;5.38;4.35;;;;;;;;;;5004554;28;20183;-78
2021/03/25 13:26:03;;;;;;;5.97;4.78;;;;;;;;;;5010116;28;20203;-80
2021/03/25 13:28:29;;;;;;;5.70;4.93;;;;;;;;;;5004905;28;20179;-78
2021/03/25 13:30:55;;;;;;;6.90;5.43;;;;;;;;;;4997119;28;20193;-79
2021/03/25 13:33:21;;;;;;;5.88;4.25;;;;;;;;;;4999622;28;20182;-80
2021/03/25 13:35:48;;;;;;;5.82;4.05;;;;;;;;;;5002353;28;20186;-79
2021/03/25 13:38:14;;;;;;;6.47;4.15;;;;;;;;;;5000399;28;20242;-79
2021/03/25 13:40:41;;;;;;;5.80;3.92;;;;;;;;;;5000478;28;20269;-80
2021/03/25 13:43:08;;;;;;;7.65;5.47;;;;;;;;;;5001030;28;20273;-79
2021/03/25 13:45:34;;;;;;;7.05;4.10;;;;;;;;;;5004559;28;20197;-78
2021/03/25 13:48:00;;;;;;;6.13;4.90;;;;;;;;;;5024445;28;20205;-79
2021/03/25 13:50:28;;;;;;;5.18;3.78;;;;;;;;;;5010416;28;20249;-78
2021/03/25 13:52:54;;;;;;;5.63;5.03;;;;;;;;;;5003013;28;20175;-78
2021/03/25 13:55:32;;;;;;;4.53;3.88;;;;;;;;;;5005985;28;20202;-79
2021/03/25 13:57:58;;;;;;;11.77;5.55;;;;;;;;;;5003698;28;20679;-79
2021/03/25 14:00:25;;;;;;;3.90;3.50;;;;;;;;;;5002457;28;20217;-80
2021/03/25 14:02:51;;;;;;;5.93;3.57;;;;;;;;;;5012787;28;20434;-79
2021/03/25 14:05:19;;;;;;;5.00;3.47;;;;;;;;;;5012357;28;20457;-79
2021/03/25 14:07:45;;;;;;;7.57;4.03;;;;;;;;;;5002976;28;20438;-79
2021/03/25 14:10:12;;;;;;;4.90;3.35;;;;;;;;;;4993595;28;20518;-79
2021/03/25 14:12:38;;;;;;;4.50;3.30;;;;;;;;;;5004085;28;20313;-78
2021/03/25 14:15:05;;;;;;;3.95;3.50;;;;;;;;;;5008036;28;20191;-79
2021/03/25 14:17:34;;;;;;;5.05;3.40;;;;;;;;;;4996842;28;20551;-78
2021/03/25 14:20:00;;;;;;;5.70;3.13;;;;;;;;;;5001179;28;20187;-78
2021/03/25 14:22:26;;;;;;;7.80;3.42;;;;;;;;;;5000059;28;20198;-79
2021/03/25 14:24:52;;;;;;;3.67;3.37;;;;;;;;;;4999980;28;20642;-80
2021/03/25 14:27:18;;;;;;;4.30;3.40;;;;;;;;;;4997320;28;20435;-78
2021/03/25 14:29:44;;;;;;;5.45;3.20;;;;;;;;;;5002715;28;20449;-78
2021/03/25 14:32:10;;;;;;;4.60;3.40;;;;;;;;;;5006748;28;20273;-76
2021/03/25 14:34:36;;;;;;;5.05;2.80;;;;;;;;;;4996554;28;20442;-79
2021/03/25 14:37:02;;;;;;;4.97;3.25;;;;;;;;;;4995156;28;20518;-78
2021/03/25 14:39:28;;;;;;;3.33;3.03;;;;;;;;;;5001994;28;20462;-78
2021/03/25 14:41:54;;;;;;;7.43;2.75;;;;;;;;;;5013437;28;20444;-77